Time;durP1;ratioP1;P1;durP2;ratioP2;P2;SDS_P1;SDS_P2;PMS_P1;PMS_P2;Temp;Humidity;BMP_temperature;BMP_pressure;BME280_temperature;BME280_humidity;BME280_pressure;Samples;Min_cycle;Max_cycle;Signal;HPM_P1;HPM_P2
2022/09/05 00:01:49;;;;;;;5.80;2.85;;;16.50;96.80;;;;;;5048075;28;20056;-54
2022/09/05 00:04:55;;;;;;;6.32;2.88;;;16.70;97.00;;;;;;5047407;28;20060;-54
2022/09/05 00:07:40;;;;;;;5.32;2.90;;;16.50;97.10;;;;;;5047738;28;20412;-53
2022/09/05 00:10:23;;;;;;;4.93;3.35;;;16.40;97.10;;;;;;5048227;28;20068;-54
2022/09/05 00:12:50;;;;;;;4.03;3.60;;;16.30;97.50;;;;;;5047956;28;20672;-54
2022/09/05 00:15:50;;;;;;;6.50;3.53;;;16.30;97.30;;;;;;5047691;28;20072;-53
2022/09/05 00:18:29;;;;;;;5.95;3.15;;;16.40;97.50;;;;;;5047119;28;20052;-54
2022/09/05 00:21:22;;;;;;;7.47;3.70;;;16.30;97.50;;;;;;5047627;28;20045;-54
2022/09/05 00:24:18;;;;;;;6.05;3.33;;;16.40;97.40;;;;;;5047698;28;20045;-54
2022/09/05 00:27:08;;;;;;;4.38;2.67;;;16.40;97.60;;;;;;5047225;28;20534;-55
2022/09/05 00:30:12;;;;;;;3.58;3.20;;;16.40;97.50;;;;;;5047723;28;20041;-54
2022/09/05 00:32:50;;;;;;;7.18;3.47;;;16.40;97.50;;;;;;5047567;28;20053;-53
2022/09/05 00:35:47;;;;;;;4.72;3.00;;;16.40;97.30;;;;;;5047562;28;20151;-55
2022/09/05 00:38:16;;;;;;;5.25;3.45;;;16.40;97.40;;;;;;5038623;28;20063;-54
2022/09/05 00:40:45;;;;;;;5.82;4.22;;;16.30;97.50;;;;;;5047906;28;20569;-54
2022/09/05 00:43:16;;;;;;;7.82;3.72;;;16.30;97.50;;;;;;5047607;28;20037;-54
2022/09/05 00:45:57;;;;;;;5.03;4.15;;;16.20;97.80;;;;;;5048125;28;20108;-54
2022/09/05 00:48:53;;;;;;;8.70;3.50;;;16.10;97.70;;;;;;5047337;28;20037;-54
2022/09/05 00:51:40;;;;;;;8.07;3.40;;;16.10;98.10;;;;;;5047248;28;20053;-54
2022/09/05 00:54:14;;;;;;;9.18;3.92;;;16.10;98.20;;;;;;5047162;28;20080;-53
2022/09/05 00:56:49;;;;;;;5.82;3.50;;;16.10;98.00;;;;;;5047185;28;20041;-54
2022/09/05 01:00:03;;;;;;;8.43;3.38;;;16.10;98.00;;;;;;5047048;28;20052;-53
2022/09/05 01:02:53;;;;;;;5.63;3.10;;;16.10;98.20;;;;;;5041908;28;20060;-54
2022/09/05 01:05:42;;;;;;;8.63;3.63;;;16.20;98.10;;;;;;5047078;28;20048;-54
2022/09/05 01:08:53;;;;;;;5.72;3.38;;;16.10;98.20;;;;;;5046751;28;20111;-53
2022/09/05 01:11:41;;;;;;;5.75;3.13;;;16.10;98.20;;;;;;5046675;28;20057;-54
2022/09/05 01:14:34;;;;;;;6.32;2.65;;;16.10;98.00;;;;;;5046658;28;20044;-54
2022/09/05 01:17:03;;;;;;;5.13;3.00;;;16.20;98.10;;;;;;5046611;28;20049;-53
2022/09/05 01:20:00;;;;;;;6.32;3.20;;;16.20;98.00;;;;;;5046681;28;20056;-53
2022/09/05 01:22:52;;;;;;;6.28;3.60;;;16.20;98.20;;;;;;5046239;28;20045;-54
2022/09/05 01:25:42;;;;;;;7.10;3.08;;;16.10;98.20;;;;;;5046231;28;20049;-54
2022/09/05 01:28:14;;;;;;;5.15;3.60;;;15.90;98.30;;;;;;5045933;28;20120;-54
2022/09/05 01:30:54;;;;;;;9.13;3.85;;;16.00;98.50;;;;;;5046393;28;20482;-54
2022/09/05 01:33:44;;;;;;;5.93;3.50;;;15.90;98.70;;;;;;5046284;28;20049;-54
2022/09/05 01:36:31;;;;;;;5.97;3.50;;;15.80;99.10;;;;;;5046338;28;20091;-54
2022/09/05 01:39:26;;;;;;;4.75;3.33;;;15.70;99.30;;;;;;5046504;28;20043;-54
2022/09/05 01:42:11;;;;;;;8.07;3.33;;;15.70;99.30;;;;;;5047180;28;20097;-54
2022/09/05 01:45:09;;;;;;;6.22;3.42;;;15.80;99.40;;;;;;5046738;28;20055;-53
2022/09/05 01:48:03;;;;;;;6.22;3.13;;;15.70;99.40;;;;;;5046498;28;20143;-54
2022/09/05 01:50:58;;;;;;;9.98;4.07;;;15.70;99.20;;;;;;5046174;28;20454;-54
2022/09/05 01:53:49;;;;;;;8.05;3.90;;;15.70;99.40;;;;;;5045902;28;20052;-53
2022/09/05 01:56:52;;;;;;;3.28;2.72;;;15.70;99.30;;;;;;5046228;28;20056;-54
2022/09/05 01:59:37;;;;;;;8.02;4.18;;;15.70;99.40;;;;;;5046156;28;20043;-54
2022/09/05 02:02:06;;;;;;;8.93;4.30;;;15.70;99.20;;;;;;5046313;28;20049;-54
2022/09/05 02:05:04;;;;;;;6.50;4.20;;;15.70;99.30;;;;;;5046067;28;20156;-54
2022/09/05 02:08:09;;;;;;;7.07;4.13;;;15.70;99.60;;;;;;5046222;28;20048;-55
2022/09/05 02:10:59;;;;;;;6.20;3.63;;;15.60;99.60;;;;;;5045990;28;20229;-54
2022/09/05 02:13:34;;;;;;;5.30;3.70;;;15.60;99.80;;;;;;5045600;28;20045;-54
2022/09/05 02:16:18;;;;;;;7.60;4.38;;;15.60;99.80;;;;;;5045727;28;20466;-53
2022/09/05 02:19:09;;;;;;;5.18;4.07;;;15.60;99.90;;;;;;5045967;28;20207;-54
2022/09/05 02:21:37;;;;;;;8.90;4.20;;;15.60;99.90;;;;;;5046095;28;20448;-54
2022/09/05 02:24:26;;;;;;;8.80;4.30;;;15.60;99.80;;;;;;5045863;28;20047;-54
2022/09/05 02:27:17;;;;;;;7.47;4.35;;;15.50;99.90;;;;;;5046142;28;20048;-53
2022/09/05 02:30:04;;;;;;;9.27;4.45;;;15.50;99.90;;;;;;5046034;28;20393;-54
2022/09/05 02:32:43;;;;;;;5.20;4.18;;;15.30;99.90;;;;;;5045988;28;20395;-54
2022/09/05 02:35:09;;;;;;;8.20;5.03;;;15.20;99.90;;;;;;5045805;28;20512;-54
2022/09/05 02:37:40;;;;;;;7.30;5.18;;;15.10;99.90;;;;;;5045390;28;20045;-54
2022/09/05 02:40:15;;;;;;;5.63;4.93;;;15.00;99.90;;;;;;5046075;28;20041;-54
2022/09/05 02:43:06;;;;;;;7.75;4.70;;;15.00;99.90;;;;;;5045627;28;20068;-54
2022/09/05 02:45:44;;;;;;;6.50;5.38;;;14.90;99.90;;;;;;5045154;28;20491;-54
2022/09/05 02:48:24;;;;;;;5.22;4.72;;;14.90;99.90;;;;;;5045463;28;20040;-54
2022/09/05 02:50:56;;;;;;;9.23;5.80;;;14.90;99.90;;;;;;5045422;28;20400;-53
2022/09/05 02:53:24;;;;;;;9.38;6.07;;;15.10;99.90;;;;;;5045416;28;20087;-53
2022/09/05 02:56:07;;;;;;;7.85;4.80;;;14.70;99.90;;;;;;5045435;28;20045;-53
2022/09/05 02:59:25;;;;;;;7.07;5.75;;;14.80;99.90;;;;;;5045072;28;20045;-54
2022/09/05 03:02:42;;;;;;;8.70;5.18;;;14.70;99.90;;;;;;5028686;28;20131;-53
2022/09/05 03:05:18;;;;;;;9.05;5.60;;;14.70;99.90;;;;;;5032399;28;20049;-53
2022/09/05 03:08:03;;;;;;;8.55;5.38;;;14.60;99.90;;;;;;5045328;28;20505;-53
2022/09/05 03:10:47;;;;;;;8.13;6.07;;;15.10;99.90;;;;;;5045689;28;20044;-53
2022/09/05 03:13:24;;;;;;;16.75;7.60;;;14.60;99.90;;;;;;5047295;28;20037;-52
2022/09/05 03:16:05;;;;;;;20.38;6.85;;;14.60;99.90;;;;;;5048736;28;20511;-53
2022/09/05 03:18:49;;;;;;;13.30;6.50;;;14.40;99.90;;;;;;5048925;28;20049;-53
2022/09/05 03:21:23;;;;;;;15.23;6.93;;;14.70;99.90;;;;;;5049202;28;20052;-51
2022/09/05 03:24:29;;;;;;;16.40;7.07;;;14.30;99.90;;;;;;5049378;28;20481;-53
2022/09/05 03:27:13;;;;;;;11.93;6.78;;;14.20;99.90;;;;;;5049440;28;20044;-53
2022/09/05 03:30:19;;;;;;;17.50;6.07;;;14.10;99.90;;;;;;5049142;28;20045;-53
2022/09/05 03:33:13;;;;;;;12.10;7.18;;;14.10;99.90;;;;;;5049371;28;20099;-52
2022/09/05 03:36:03;;;;;;;15.20;7.43;;;14.00;99.90;;;;;;5048721;28;20129;-53
2022/09/05 03:38:49;;;;;;;24.05;7.68;;;14.00;99.90;;;;;;5048565;28;20044;-53
2022/09/05 03:41:15;;;;;;;15.07;7.05;;;13.90;99.90;;;;;;5048787;28;20045;-53
2022/09/05 03:43:55;;;;;;;15.95;7.00;;;13.90;99.90;;;;;;5048251;28;20037;-54
2022/09/05 03:46:27;;;;;;;20.45;7.03;;;14.20;99.90;;;;;;5048399;28;20553;-54
2022/09/05 03:49:30;;;;;;;12.65;6.65;;;13.90;99.90;;;;;;5048601;28;20045;-52
2022/09/05 03:52:11;;;;;;;9.40;6.28;;;13.90;99.90;;;;;;5047106;28;20502;-53
2022/09/05 03:54:58;;;;;;;8.65;6.95;;;14.00;99.90;;;;;;5048207;28;20037;-53
2022/09/05 03:58:09;;;;;;;10.48;6.50;;;13.90;99.90;;;;;;5047760;28;20103;-52
2022/09/05 04:00:36;;;;;;;13.32;6.95;;;13.90;99.90;;;;;;5048955;28;20052;-54
2022/09/05 04:03:21;;;;;;;19.45;6.30;;;14.40;99.90;;;;;;5048643;28;20045;-53
2022/09/05 04:05:54;;;;;;;11.80;7.50;;;13.90;99.90;;;;;;5048120;28;20041;-53
2022/09/05 04:08:32;;;;;;;16.38;7.38;;;13.80;99.90;;;;;;5047764;28;20037;-53
2022/09/05 04:11:04;;;;;;;17.15;7.78;;;13.70;99.90;;;;;;5046536;28;20045;-53
2022/09/05 04:13:53;;;;;;;14.35;7.72;;;13.80;99.90;;;;;;5047780;28;20044;-52
2022/09/05 04:16:30;;;;;;;11.48;6.65;;;13.80;99.90;;;;;;5047943;28;20111;-54
2022/09/05 04:19:06;;;;;;;11.93;6.93;;;13.70;99.90;;;;;;5047994;28;20126;-53
2022/09/05 04:21:43;;;;;;;15.48;7.97;;;13.70;99.90;;;;;;5047348;28;20491;-53
2022/09/05 04:24:44;;;;;;;10.50;7.28;;;13.60;99.90;;;;;;5046364;28;20534;-53
2022/09/05 04:27:35;;;;;;;15.85;8.15;;;13.60;99.90;;;;;;5040566;28;20057;-53
2022/09/05 04:30:38;;;;;;;16.45;8.45;;;13.50;99.90;;;;;;5047408;28;20466;-50
2022/09/05 04:33:22;;;;;;;19.88;9.68;;;13.50;99.90;;;;;;5047765;28;20552;-52
2022/09/05 04:36:00;;;;;;;17.45;7.78;;;13.40;99.90;;;;;;5047412;28;20037;-51
2022/09/05 04:38:43;;;;;;;22.55;8.05;;;13.40;99.90;;;;;;5047510;28;20041;-54
2022/09/05 04:41:19;;;;;;;13.13;7.63;;;13.50;99.90;;;;;;5047080;28;20483;-50
2022/09/05 04:43:54;;;;;;;12.07;7.55;;;13.40;99.90;;;;;;5047802;28;20403;-53
2022/09/05 04:46:28;;;;;;;11.27;7.78;;;13.30;99.90;;;;;;5047367;28;20274;-54
2022/09/05 04:49:08;;;;;;;11.73;7.57;;;13.30;99.90;;;;;;5047168;28;20128;-53
2022/09/05 04:51:58;;;;;;;8.63;7.78;;;13.30;99.90;;;;;;5046952;28;20048;-53
2022/09/05 04:54:33;;;;;;;7.82;6.80;;;13.30;99.90;;;;;;5047274;28;20063;-50
2022/09/05 04:57:07;;;;;;;10.93;7.00;;;13.20;99.90;;;;;;5047583;28;20037;-53
2022/09/05 04:59:58;;;;;;;8.55;6.80;;;13.20;99.90;;;;;;5047344;28;20041;-53
2022/09/05 05:02:50;;;;;;;8.88;6.80;;;13.20;99.90;;;;;;5047228;28;20055;-54
2022/09/05 05:05:22;;;;;;;7.72;7.03;;;13.20;99.90;;;;;;5046005;28;20340;-54
2022/09/05 05:07:59;;;;;;;9.43;6.70;;;13.30;99.90;;;;;;5047213;28;20091;-53
2022/09/05 05:10:44;;;;;;;8.35;7.25;;;13.60;99.90;;;;;;5047052;28;20138;-52
2022/09/05 05:13:19;;;;;;;8.10;7.07;;;13.20;99.90;;;;;;5046894;28;20482;-53
2022/09/05 05:16:01;;;;;;;7.00;6.28;;;13.20;99.90;;;;;;5046198;28;20486;-53
2022/09/05 05:18:39;;;;;;;7.80;6.90;;;13.30;99.90;;;;;;5046652;28;20049;-53
2022/09/05 05:21:18;;;;;;;7.93;7.13;;;13.40;99.90;;;;;;5046376;28;20056;-51
2022/09/05 05:23:59;;;;;;;7.38;6.68;;;13.20;99.90;;;;;;5046209;28;20044;-54
2022/09/05 05:26:42;;;;;;;9.30;6.90;;;13.40;99.90;;;;;;5044713;28;20052;-53
2022/09/05 05:29:14;;;;;;;9.60;7.68;;;13.40;99.90;;;;;;5046594;28;20091;-52
2022/09/05 05:31:58;;;;;;;9.20;7.60;;;13.50;99.90;;;;;;5046799;28;20489;-54
2022/09/05 05:34:32;;;;;;;7.95;7.15;;;13.50;99.90;;;;;;5046286;28;20029;-52
2022/09/05 05:37:14;;;;;;;10.52;7.40;;;13.50;99.90;;;;;;5045991;28;20076;-53
2022/09/05 05:39:48;;;;;;;9.05;7.60;;;13.60;99.90;;;;;;5046180;28;20124;-52
2022/09/05 05:42:22;;;;;;;9.80;7.57;;;13.60;99.90;;;;;;5046313;28;20049;-53
2022/09/05 05:44:55;;;;;;;7.53;6.72;;;13.60;99.90;;;;;;5045817;28;20119;-53
2022/09/05 05:47:46;;;;;;;9.02;7.30;;;13.60;99.90;;;;;;5046127;28;20467;-52
2022/09/05 05:50:32;;;;;;;7.53;6.82;;;13.90;99.90;;;;;;5043264;28;20495;-53
2022/09/05 05:53:29;;;;;;;7.75;6.93;;;14.10;99.90;;;;;;5046395;28;20039;-53
2022/09/05 05:56:12;;;;;;;22.35;8.57;;;13.70;99.90;;;;;;5045368;28;20060;-53
2022/09/05 05:59:15;;;;;;;16.55;8.02;;;13.70;99.90;;;;;;5045946;28;20068;-53
2022/09/05 06:02:14;;;;;;;10.45;7.82;;;13.80;99.90;;;;;;5046368;28;20540;-53
2022/09/05 06:05:10;;;;;;;16.38;7.85;;;13.90;99.90;;;;;;5046364;28;20056;-53
2022/09/05 06:08:00;;;;;;;9.98;7.35;;;13.90;99.90;;;;;;5046042;28;20391;-53
2022/09/05 06:10:32;;;;;;;10.85;7.72;;;14.10;99.90;;;;;;5046214;28;20045;-52
2022/09/05 06:13:35;;;;;;;12.90;7.03;;;15.00;99.90;;;;;;5046057;28;20098;-53
2022/09/05 06:16:19;;;;;;;13.73;6.57;;;15.10;99.90;;;;;;5045548;28;20065;-52
2022/09/05 06:18:51;;;;;;;12.18;6.57;;;15.00;99.90;;;;;;5045820;28;20403;-54
2022/09/05 06:21:41;;;;;;;10.55;6.82;;;15.20;99.90;;;;;;5045825;28;20049;-53
2022/09/05 06:24:23;;;;;;;38.40;8.82;;;15.30;99.90;;;;;;5045708;28;20521;-53
2022/09/05 06:26:57;;;;;;;35.05;8.40;;;15.50;99.90;;;;;;5045687;28;20106;-53
2022/09/05 06:29:58;;;;;;;22.20;7.65;;;16.50;99.90;;;;;;5045967;28;20041;-53
2022/09/05 06:33:21;;;;;;;20.02;7.05;;;18.00;99.90;;;;;;5045805;28;20048;-53
2022/09/05 06:35:59;;;;;;;;;;;18.70;99.90;;;;;;5022608;28;20053;-53
2022/09/05 06:38:30;;;;;;;14.73;7.22;;;18.70;99.40;;;;;;5006637;28;20377;-53
2022/09/05 06:41:37;;;;;;;17.63;6.88;;;18.30;99.50;;;;;;5035745;28;20049;-52
2022/09/05 06:44:14;;;;;;;23.05;7.82;;;18.00;99.90;;;;;;5045977;28;20510;-53
2022/09/05 06:46:44;;;;;;;12.43;6.82;;;17.90;99.90;;;;;;5045511;28;20055;-53
2022/09/05 06:49:20;;;;;;;16.98;7.40;;;17.80;99.90;;;;;;5048785;28;20060;-53
2022/09/05 06:52:16;;;;;;;6.45;5.63;;;17.80;99.90;;;;;;5048665;28;20083;-53
2022/09/05 06:55:11;;;;;;;7.07;5.57;;;18.00;99.90;;;;;;5049031;28;20052;-53
2022/09/05 06:57:47;;;;;;;7.22;5.63;;;18.10;99.90;;;;;;5048996;28;20124;-54
2022/09/05 07:00:31;;;;;;;9.63;6.45;;;18.20;99.90;;;;;;5048876;28;20580;-53
2022/09/05 07:03:34;;;;;;;10.27;5.93;;;18.20;99.90;;;;;;5048704;28;20047;-53
2022/09/05 07:06:10;;;;;;;10.38;5.70;;;18.40;99.90;;;;;;5048424;28;20607;-53
2022/09/05 07:08:39;;;;;;;8.32;5.78;;;18.40;99.90;;;;;;5048813;28;20060;-54
2022/09/05 07:11:20;;;;;;;6.65;5.28;;;18.50;99.90;;;;;;5048521;28;20128;-53
2022/09/05 07:14:03;;;;;;;7.38;4.65;;;18.70;98.70;;;;;;5047352;28;20505;-54
2022/09/05 07:16:53;;;;;;;7.45;4.80;;;18.80;99.10;;;;;;5049092;28;20057;-53
2022/09/05 07:19:26;;;;;;;6.13;5.13;;;18.90;99.90;;;;;;5049242;28;20049;-54
2022/09/05 07:21:58;;;;;;;12.98;4.93;;;19.10;99.20;;;;;;5048723;28;20515;-54
2022/09/05 07:24:27;;;;;;;9.10;5.07;;;19.20;97.50;;;;;;5048922;28;20053;-54
2022/09/05 07:26:57;;;;;;;9.02;5.18;;;19.30;97.30;;;;;;5048728;28;20302;-53
2022/09/05 07:29:32;;;;;;;6.30;4.25;;;19.40;97.10;;;;;;5048592;28;20055;-54
2022/09/05 07:32:00;;;;;;;8.20;4.78;;;19.50;96.70;;;;;;5048428;28;20045;-53
2022/09/05 07:34:34;;;;;;;9.07;5.18;;;19.50;96.60;;;;;;5048175;28;20501;-54
2022/09/05 07:37:09;;;;;;;8.73;4.68;;;19.60;96.50;;;;;;5048307;28;20186;-56
2022/09/05 07:39:42;;;;;;;8.75;4.95;;;19.80;96.70;;;;;;5048708;28;20167;-56
2022/09/05 07:42:15;;;;;;;9.63;4.63;;;20.10;96.00;;;;;;5048115;28;20044;-56
2022/09/05 07:44:55;;;;;;;5.35;4.03;;;20.30;95.50;;;;;;5048165;28;20158;-56
2022/09/05 07:47:34;;;;;;;7.90;5.30;;;20.70;94.40;;;;;;5047329;28;20049;-56
2022/09/05 07:50:05;;;;;;;7.22;4.53;;;20.80;94.50;;;;;;5046627;28;20051;-56
2022/09/05 07:52:36;;;;;;;6.93;3.95;;;21.10;93.80;;;;;;5048522;28;20144;-56
2022/09/05 07:55:24;;;;;;;7.35;4.50;;;21.40;93.60;;;;;;5048233;28;20098;-55
2022/09/05 07:57:53;;;;;;;6.80;4.60;;;21.50;92.90;;;;;;5048528;28;20049;-56
2022/09/05 08:00:23;;;;;;;6.80;4.35;;;21.60;92.70;;;;;;5048257;28;20114;-56
2022/09/05 08:02:49;;;;;;;12.10;5.00;;;21.50;92.10;;;;;;5048400;28;20118;-56
2022/09/05 08:05:20;;;;;;;5.68;4.47;;;21.60;92.00;;;;;;5048177;28;20633;-56
2022/09/05 08:07:51;;;;;;;7.53;4.28;;;21.60;91.80;;;;;;5048230;28;20041;-56
2022/09/05 08:10:28;;;;;;;8.10;4.22;;;21.70;91.90;;;;;;5048024;28;20052;-56
2022/09/05 08:13:12;;;;;;;8.38;4.50;;;21.70;91.50;;;;;;5047824;28;20427;-56
2022/09/05 08:15:45;;;;;;;5.40;4.25;;;21.80;91.50;;;;;;5047809;28;20045;-56
2022/09/05 08:18:15;;;;;;;10.00;4.47;;;22.00;91.20;;;;;;5047216;28;20036;-56
2022/09/05 08:20:53;;;;;;;8.10;4.28;;;22.70;91.20;;;;;;5047752;28;20047;-56
2022/09/05 08:23:59;;;;;;;7.57;3.42;;;24.20;90.10;;;;;;5048153;28;20053;-56
2022/09/05 08:26:28;;;;;;;5.65;3.63;;;26.50;89.90;;;;;;5047796;28;20049;-56
2022/09/05 08:29:12;;;;;;;9.13;3.42;;;28.20;76.70;;;;;;5045964;28;20055;-56
2022/09/05 08:31:50;;;;;;;6.22;3.17;;;29.80;94.10;;;;;;5046064;28;20044;-56
2022/09/05 08:34:31;;;;;;;6.43;3.13;;;30.60;67.30;;;;;;5047214;28;20808;-56
2022/09/05 08:36:59;;;;;;;5.80;3.30;;;31.50;64.30;;;;;;5029665;28;20053;-48
2022/09/05 08:39:30;;;;;;;4.68;2.67;;;32.10;63.00;;;;;;5044509;28;20048;-48
2022/09/05 08:42:08;;;;;;;8.48;3.25;;;32.00;62.30;;;;;;5044735;28;20044;-49
2022/09/05 08:44:56;;;;;;;4.25;2.80;;;31.60;62.00;;;;;;5044067;28;20045;-57
2022/09/05 08:47:34;;;;;;;7.35;3.47;;;31.40;61.20;;;;;;5044145;28;20897;-52
2022/09/05 08:50:11;;;;;;;7.07;2.78;;;31.80;61.00;;;;;;5044275;28;20520;-51
2022/09/05 08:52:37;;;;;;;7.53;2.78;;;32.40;59.60;;;;;;5045141;28;20874;-52
2022/09/05 08:55:44;;;;;;;6.47;2.50;;;33.40;58.80;;;;;;5044176;28;20045;-50
2022/09/05 08:58:27;;;;;;;4.00;2.47;;;34.50;57.30;;;;;;5021317;28;20049;-48
2022/09/05 09:01:21;;;;;;;9.57;2.78;;;35.20;54.90;;;;;;5043607;28;20089;-58
2022/09/05 09:04:21;;;;;;;5.28;2.17;;;35.60;55.40;;;;;;5041623;28;20053;-58
2022/09/05 09:07:31;;;;;;;6.70;2.13;;;35.70;53.60;;;;;;5044134;28;20382;-58
2022/09/05 09:10:08;;;;;;;7.82;2.50;;;35.70;52.90;;;;;;5043124;28;20041;-58
2022/09/05 09:13:07;;;;;;;6.18;2.60;;;35.80;52.80;;;;;;5044104;28;20157;-57
2022/09/05 09:15:43;;;;;;;5.72;2.38;;;35.80;52.40;;;;;;5045191;28;20359;-57
2022/09/05 09:18:17;;;;;;;7.78;2.30;;;36.00;51.50;;;;;;5046366;28;20041;-57
2022/09/05 09:20:47;;;;;;;4.50;2.30;;;36.30;51.60;;;;;;5047364;28;20056;-57
2022/09/05 09:23:49;;;;;;;6.97;2.38;;;36.60;51.00;;;;;;5045330;28;20037;-58
2022/09/05 09:26:22;;;;;;;4.55;2.20;;;36.40;50.10;;;;;;5046064;28;20048;-57
2022/09/05 09:29:08;;;;;;;4.43;1.90;;;35.60;51.10;;;;;;5046499;28;20099;-58
2022/09/05 09:31:53;;;;;;;8.18;1.98;;;35.10;51.00;;;;;;5044989;28;20116;-57
2022/09/05 09:34:24;;;;;;;4.28;2.30;;;35.00;52.10;;;;;;5046706;28;20128;-58
2022/09/05 09:37:21;;;;;;;7.57;2.00;;;34.90;52.20;;;;;;5046148;28;20398;-58
2022/09/05 09:40:11;;;;;;;3.20;1.90;;;35.10;52.30;;;;;;5046180;28;20044;-57
2022/09/05 09:43:09;;;;;;;6.07;1.92;;;35.00;52.30;;;;;;5045673;28;20120;-58
2022/09/05 09:45:40;;;;;;;6.05;1.55;;;35.00;53.00;;;;;;5046559;28;20097;-56
2022/09/05 09:48:15;;;;;;;6.43;1.50;;;35.00;52.30;;;;;;5046080;28;20095;-56
2022/09/05 09:51:18;;;;;;;3.70;1.58;;;35.10;52.20;;;;;;5046148;28;20049;-56
2022/09/05 09:54:31;;;;;;;1.90;0.88;;;35.10;51.10;;;;;;5046374;28;20052;-56
2022/09/05 09:57:18;;;;;;;6.30;1.55;;;34.70;52.50;;;;;;5022969;28;20103;-56
2022/09/05 09:59:50;;;;;;;3.92;1.00;;;34.40;52.40;;;;;;5045891;28;20087;-56
2022/09/05 10:02:45;;;;;;;3.20;1.20;;;34.30;52.50;;;;;;5045988;28;20037;-56
2022/09/05 10:05:30;;;;;;;3.60;1.42;;;34.10;51.70;;;;;;5046480;28;20049;-56
2022/09/05 10:08:05;;;;;;;2.72;1.25;;;34.10;53.30;;;;;;5044799;28;20127;-56
2022/09/05 10:10:59;;;;;;;5.35;1.42;;;33.90;52.40;;;;;;5045624;28;20594;-56
2022/09/05 10:13:43;;;;;;;4.63;1.38;;;33.90;53.30;;;;;;5046258;28;20224;-56
2022/09/05 10:16:46;;;;;;;4.40;1.20;;;34.00;52.30;;;;;;5046028;28;20057;-56
2022/09/05 10:19:35;;;;;;;7.60;1.48;;;33.90;52.80;;;;;;5046869;28;20049;-56
2022/09/05 10:22:43;;;;;;;4.40;1.10;;;33.70;51.90;;;;;;5048841;28;20775;-56
2022/09/05 10:25:49;;;;;;;3.47;0.95;;;33.30;53.40;;;;;;5031846;28;20048;-57
2022/09/05 10:28:20;;;;;;;3.85;0.93;;;32.90;54.10;;;;;;5049247;28;20052;-57
2022/09/05 10:31:04;;;;;;;3.58;1.33;;;33.00;53.00;;;;;;5049030;28;20425;-57
2022/09/05 10:33:42;;;;;;;3.78;0.80;;;33.10;53.80;;;;;;5049967;28;20052;-57
2022/09/05 10:36:14;;;;;;;4.78;1.05;;;33.40;52.80;;;;;;5049883;28;20047;-56
2022/09/05 10:38:44;;;;;;;3.40;1.00;;;33.30;52.70;;;;;;5049825;28;20505;-57
2022/09/05 10:41:18;;;;;;;4.28;0.95;;;33.20;53.70;;;;;;5050079;28;20255;-56
2022/09/05 10:44:01;;;;;;;6.18;1.13;;;32.80;55.50;;;;;;5050002;28;20443;-56
2022/09/05 10:46:45;;;;;;;3.60;1.15;;;32.30;54.80;;;;;;5049882;28;20063;-56
2022/09/05 10:49:14;;;;;;;4.63;1.25;;;32.00;55.50;;;;;;5049475;28;20036;-56
2022/09/05 10:51:40;;;;;;;6.10;1.00;;;31.50;56.00;;;;;;5049712;28;20048;-56
2022/09/05 10:54:36;;;;;;;5.50;1.10;;;31.10;56.50;;;;;;5050360;28;20045;-56
2022/09/05 10:57:32;;;;;;;9.40;1.30;;;30.90;56.40;;;;;;5049776;28;20493;-56
2022/09/05 11:00:09;;;;;;;2.15;0.93;;;30.60;58.00;;;;;;5049840;28;20040;-56
2022/09/05 11:02:40;;;;;;;3.45;1.00;;;30.40;57.10;;;;;;5049604;28;20048;-57
2022/09/05 11:05:25;;;;;;;4.55;1.40;;;30.30;57.40;;;;;;5049354;28;20124;-56
2022/09/05 11:08:09;;;;;;;2.85;1.05;;;30.20;57.70;;;;;;5049232;28;20052;-56
2022/09/05 11:11:02;;;;;;;5.22;1.33;;;29.90;57.80;;;;;;5049414;28;20131;-56
2022/09/05 11:13:51;;;;;;;3.90;1.02;;;29.70;57.90;;;;;;5048895;28;20486;-57
2022/09/05 11:16:32;;;;;;;2.25;1.00;;;29.60;59.20;;;;;;5049028;28;20357;-57
2022/09/05 11:19:05;;;;;;;3.90;0.90;;;29.40;59.10;;;;;;5048752;28;20514;-57
2022/09/05 11:21:41;;;;;;;5.78;1.45;;;29.30;59.40;;;;;;5049324;28;20391;-57
2022/09/05 11:24:13;;;;;;;4.07;1.45;;;29.20;58.00;;;;;;5049371;28;20123;-57
2022/09/05 11:26:47;;;;;;;3.35;0.95;;;29.00;58.50;;;;;;5049085;28;20371;-57
2022/09/05 11:29:22;;;;;;;4.50;1.05;;;29.00;59.00;;;;;;5049076;28;20080;-57
2022/09/05 11:32:26;;;;;;;3.58;1.10;;;28.80;58.70;;;;;;5048959;28;20420;-57
2022/09/05 11:35:09;;;;;;;8.43;1.17;;;28.80;59.50;;;;;;5048200;28;20040;-57
2022/09/05 11:37:44;;;;;;;7.45;1.25;;;28.70;58.60;;;;;;5048882;28;20056;-54
2022/09/05 11:40:19;;;;;;;2.60;0.63;;;28.70;59.90;;;;;;5049048;28;20060;-54
2022/09/05 11:43:06;;;;;;;2.08;0.77;;;28.70;59.30;;;;;;5048290;28;20491;-54
2022/09/05 11:45:31;;;;;;;4.03;0.98;;;28.70;59.00;;;;;;5048324;28;20126;-54
2022/09/05 11:48:24;;;;;;;4.45;1.10;;;28.60;59.50;;;;;;5048396;28;20122;-53
2022/09/05 11:50:52;;;;;;;4.93;1.00;;;28.50;59.30;;;;;;5048582;28;20368;-54
2022/09/05 11:53:21;;;;;;;5.15;1.00;;;28.50;60.30;;;;;;5048168;28;20195;-54
2022/09/05 11:56:15;;;;;;;1.77;1.00;;;28.50;59.70;;;;;;5048234;28;20041;-54
2022/09/05 11:59:06;;;;;;;7.13;1.00;;;28.50;58.80;;;;;;5047817;28;20449;-54
2022/09/05 12:01:57;;;;;;;3.08;1.10;;;28.60;59.40;;;;;;5047807;28;20108;-54
2022/09/05 12:04:45;;;;;;;2.55;0.60;;;28.60;58.60;;;;;;5047689;28;20045;-54
2022/09/05 12:07:44;;;;;;;3.85;0.93;;;28.60;59.20;;;;;;5048414;28;20252;-54
2022/09/05 12:10:21;;;;;;;2.05;0.70;;;28.60;58.90;;;;;;5048071;28;20079;-54
2022/09/05 12:12:55;;;;;;;2.47;0.80;;;28.50;59.40;;;;;;5047949;28;20115;-54
2022/09/05 12:15:26;;;;;;;4.13;0.82;;;28.40;59.60;;;;;;5047563;28;20128;-54
2022/09/05 12:17:54;;;;;;;1.30;0.60;;;28.40;60.10;;;;;;5047991;28;20049;-55
2022/09/05 12:20:40;;;;;;;7.60;1.25;;;28.40;60.30;;;;;;5048333;28;20099;-54
2022/09/05 12:23:46;;;;;;;4.10;0.80;;;28.40;59.70;;;;;;5049043;28;20498;-54
2022/09/05 12:26:18;;;;;;;2.67;0.80;;;28.50;59.60;;;;;;5048628;28;20045;-54
2022/09/05 12:28:46;;;;;;;3.05;0.60;;;28.60;59.20;;;;;;5047960;28;20044;-54
2022/09/05 12:31:18;;;;;;;2.60;0.77;;;28.60;58.90;;;;;;5048907;28;20047;-54
2022/09/05 12:33:47;;;;;;;2.60;0.98;;;28.60;58.90;;;;;;5048994;28;20170;-55
2022/09/05 12:36:20;;;;;;;2.10;0.70;;;28.60;58.80;;;;;;5047142;28;20053;-54
2022/09/05 12:38:59;;;;;;;2.42;0.63;;;28.60;59.70;;;;;;5048643;28;20052;-55
2022/09/05 12:41:36;;;;;;;2.65;0.65;;;28.60;59.50;;;;;;5048912;28;20055;-56
2022/09/05 12:44:02;;;;;;;2.65;0.50;;;28.60;60.10;;;;;;5048398;28;20051;-56
2022/09/05 12:46:49;;;;;;;2.35;0.68;;;28.50;59.70;;;;;;5047212;28;20045;-56
2022/09/05 12:49:17;;;;;;;2.92;0.63;;;28.50;59.50;;;;;;5048362;28;20051;-56
2022/09/05 12:51:56;;;;;;;4.85;0.70;;;28.50;59.50;;;;;;5048074;28;20040;-56
2022/09/05 12:54:32;;;;;;;1.83;0.50;;;28.30;59.20;;;;;;5048185;28;20036;-56
2022/09/05 12:57:05;;;;;;;5.45;1.00;;;28.20;59.10;;;;;;5048023;28;20080;-56
2022/09/05 12:59:34;;;;;;;3.17;0.98;;;28.10;58.30;;;;;;5048335;28;20041;-56
2022/09/05 13:02:06;;;;;;;1.77;0.57;;;28.20;57.80;;;;;;5047686;28;20089;-56
2022/09/05 13:04:39;;;;;;;2.13;0.80;;;28.20;58.60;;;;;;5046913;28;20045;-56
2022/09/05 13:07:33;;;;;;;3.58;0.43;;;28.30;58.10;;;;;;5047524;28;20045;-56
2022/09/05 13:10:07;;;;;;;2.42;0.82;;;28.40;58.40;;;;;;5046867;28;20040;-55
2022/09/05 13:12:53;;;;;;;1.20;0.50;;;28.30;58.70;;;;;;5046921;28;20067;-56
2022/09/05 13:15:37;;;;;;;2.47;0.57;;;28.40;58.40;;;;;;5046956;28;20037;-57
2022/09/05 13:18:09;;;;;;;2.15;0.55;;;28.40;59.10;;;;;;5046944;28;20494;-56
2022/09/05 13:20:50;;;;;;;3.30;1.08;;;28.40;57.90;;;;;;5045608;28;20550;-56
2022/09/05 13:23:30;;;;;;;3.65;0.70;;;28.40;58.20;;;;;;5047403;28;20403;-56
2022/09/05 13:26:11;;;;;;;2.60;0.60;;;28.30;59.00;;;;;;5047077;28;20048;-56
2022/09/05 13:28:51;;;;;;;2.50;0.98;;;28.30;58.60;;;;;;5046390;28;20045;-56
2022/09/05 13:31:41;;;;;;;2.90;0.68;;;28.40;59.20;;;;;;5047186;28;20433;-56
2022/09/05 13:34:46;;;;;;;4.45;0.90;;;28.50;59.00;;;;;;5046825;28;20636;-56
2022/09/05 13:37:25;;;;;;;2.45;1.02;;;28.50;58.30;;;;;;5042975;28;20075;-56
2022/09/05 13:39:54;;;;;;;2.75;0.80;;;28.50;58.60;;;;;;5046855;28;20387;-56
2022/09/05 13:42:29;;;;;;;1.25;0.75;;;28.30;58.40;;;;;;5047337;28;20463;-56
2022/09/05 13:44:57;;;;;;;2.20;0.70;;;28.20;59.20;;;;;;5046950;28;20036;-56
2022/09/05 13:47:38;;;;;;;3.90;0.52;;;28.20;60.30;;;;;;5047238;28;20094;-56
2022/09/05 13:50:32;;;;;;;1.90;0.80;;;28.20;58.80;;;;;;5047196;28;20487;-56
2022/09/05 13:53:06;;;;;;;1.58;0.52;;;28.20;58.50;;;;;;5047458;28;20060;-56
2022/09/05 13:55:52;;;;;;;1.30;0.50;;;28.20;58.20;;;;;;5046975;28;20051;-56
2022/09/05 13:58:46;;;;;;;2.83;1.05;;;28.20;58.10;;;;;;5044758;28;20127;-56
2022/09/05 14:01:36;;;;;;;2.00;0.90;;;28.20;58.20;;;;;;5046621;28;20491;-56
2022/09/05 14:04:25;;;;;;;2.60;0.73;;;28.20;59.00;;;;;;5045593;28;20041;-52
2022/09/05 14:07:17;;;;;;;3.97;0.60;;;28.10;58.80;;;;;;5028667;28;20052;-46